Meteorología y climatología de Navarra
Datos de la estación - Meteo Navarra

Estación de Pamplona GN

Altitud 455 m.


Datos desde el 02/08/2020 hasta el 03/08/2020 en horario solar
Los datos son PROVISIONALES

Anterior Página 1 de 1 Siguiente Descargar: Formato para Excel 2000 o superior   Formato csv   Formato para OpenOffice Calc
Fecha Temperatura Humedad relativa Radiación global Insolación Precipitación Vel. viento 10 m Vel. viento 10 m Dir. viento 10 m
ºC % W/m² s l/m² m/s km/h º
02/08/2020 0:00 18.8 80 0.0 0 0.0 2.8 9.9 314
02/08/2020 0:10 18.8 80 0.0 0 0.0 2.9 10.5 316
02/08/2020 0:20 18.8 79 0.0 0 0.0 3.0 10.9 334
02/08/2020 0:30 18.7 79 0.0 0 0.0 2.9 10.6 309
02/08/2020 0:40 18.7 79 0.0 0 0.0 3.2 11.5 304
02/08/2020 0:50 18.7 80 0.0 0 0.0 2.0 7.0 316
02/08/2020 1:00 18.6 79 0.0 0 0.0 1.8 6.5 349
02/08/2020 1:10 18.4 79 0.0 0 0.0 2.3 8.2 333
02/08/2020 1:20 18.5 80 0.0 0 0.0 1.6 5.7 333
02/08/2020 1:30 18.4 80 0.0 0 0.0 3.5 12.7 302
02/08/2020 1:40 18.3 81 0.0 0 0.0 3.6 12.9 316
02/08/2020 1:50 18.2 79 0.0 0 0.0 4.9 17.7 311
02/08/2020 2:00 18.0 76 0.0 0 0.0 5.5 19.8 308
02/08/2020 2:10 18.0 75 0.0 0 0.0 3.3 11.9 313
02/08/2020 2:20 18.1 75 0.0 0 0.0 3.8 13.6 307
02/08/2020 2:30 18.1 76 0.0 0 0.0 3.6 13.0 309
02/08/2020 2:40 18.0 77 0.0 0 0.0 3.7 13.5 312
02/08/2020 2:50 17.9 78 0.0 0 0.0 3.5 12.4 306
02/08/2020 3:00 17.9 79 0.0 0 0.0 3.8 13.6 306
02/08/2020 3:10 17.8 80 0.0 0 0.0 3.9 14.1 306
02/08/2020 3:20 17.8 80 0.0 0 0.0 3.3 11.7 311
02/08/2020 3:30 18.0 79 0.0 0 0.0 3.4 12.3 308
02/08/2020 3:40 18.1 78 0.0 0 0.0 3.2 11.7 310
02/08/2020 3:50 18.1 78 0.0 0 0.0 2.3 8.3 312
02/08/2020 4:00 18.1 78 0.0 0 0.0 2.3 8.4 315
02/08/2020 4:10 18.1 79 0.0 0 0.0 2.7 9.6 323
02/08/2020 4:20 18.1 79 0.0 0 0.0 3.2 11.6 305
02/08/2020 4:30 18.0 80 0.0 0 0.0 2.5 9.1 328
02/08/2020 4:40 18.0 79 0.0 0 0.0 1.8 6.6 325
02/08/2020 4:50 17.9 79 0.0 0 0.0 2.3 8.1 312
02/08/2020 5:00 18.0 78 0.0 0 0.0 2.0 7.1 318
02/08/2020 5:10 18.0 78 0.0 0 0.0 1.6 5.6 323
02/08/2020 5:20 18.0 79 0.5 0 0.0 2.7 9.6 322
02/08/2020 5:30 17.9 79 20.7 0 0.0 2.9 10.5 319
02/08/2020 5:40 18.0 79 30.3 0 0.0 3.5 12.7 324
02/08/2020 5:50 18.0 79 36.4 0 0.0 2.8 9.9 324
02/08/2020 6:00 18.1 79 40.6 0 0.0 2.4 8.8 335
02/08/2020 6:10 18.0 79 51.7 0 0.0 3.0 10.7 321
02/08/2020 6:20 18.0 79 54.3 0 0.0 1.7 6.3 338
02/08/2020 6:30 18.0 78 58.5 0 0.0 2.7 9.7 316
02/08/2020 6:40 18.0 78 104.4 0 0.0 2.1 7.7 341
02/08/2020 6:50 18.2 77 116.6 0 0.0 3.1 11.0 330
02/08/2020 7:00 18.2 78 100.2 0 0.0 2.0 7.2 326
02/08/2020 7:10 18.3 78 128.6 0 0.0 3.0 10.9 318
02/08/2020 7:20 18.3 78 136.3 0 0.0 2.1 7.4 344
02/08/2020 7:30 18.3 77 170.2 0 0.0 1.8 6.6 335
02/08/2020 7:40 18.5 75 233.6 134 0.0 3.5 12.6 330
02/08/2020 7:50 18.6 75 228.7 168 0.0 2.8 10.1 328
02/08/2020 8:00 18.7 73 238.4 0 0.0 2.1 7.7 323
02/08/2020 8:10 18.7 72 225.2 54 0.0 2.4 8.7 337
02/08/2020 8:20 18.7 72 370.5 472 0.0 2.2 8.0 360
02/08/2020 8:30 18.9 71 307.8 192 0.0 3.6 13.0 359
02/08/2020 8:40 18.7 72 540.7 528 0.0 4.2 15.3 4
02/08/2020 8:50 19.2 69 781.6 578 0.0 4.1 14.8 7
02/08/2020 9:00 19.8 66 726.5 580 0.0 3.8 13.7 360
02/08/2020 9:10 20.4 63 731.7 600 0.0 3.3 11.7 24
02/08/2020 9:20 20.0 63 568.2 600 0.0 4.1 14.8 10
02/08/2020 9:30 20.5 62 897.0 600 0.0 4.2 15.0 358
02/08/2020 9:40 20.5 60 503.8 394 0.0 4.3 15.4 7
02/08/2020 9:50 20.4 61 753.1 594 0.0 3.5 12.6 0
02/08/2020 10:00 20.8 59 870.0 600 0.0 4.2 15.3 352
02/08/2020 10:10 21.0 59 900.0 584 0.0 3.3 12.0 1
02/08/2020 10:20 21.5 58 716.6 490 0.0 2.9 10.3 337
02/08/2020 10:30 21.2 59 768.4 482 0.0 4.4 15.8 354
02/08/2020 10:40 21.2 59 937.0 600 0.0 4.4 15.7 353
02/08/2020 10:50 21.8 59 959.0 594 0.0 2.8 10.0 353
02/08/2020 11:00 22.0 58 955.0 562 0.0 3.7 13.3 359
02/08/2020 11:10 21.8 58 775.3 458 0.0 2.8 10.0 331
02/08/2020 11:20 21.6 58 753.4 396 0.0 3.7 13.3 349
02/08/2020 11:30 21.5 56 1005.0 600 0.0 4.5 16.3 358
02/08/2020 11:40 21.3 57 909.0 600 0.0 4.0 14.5 357
02/08/2020 11:50 21.8 56 886.0 600 0.0 2.4 8.7 344
02/08/2020 12:00 22.3 55 902.0 504 0.0 3.8 13.8 346
02/08/2020 12:10 22.1 56 733.6 402 0.0 4.3 15.5 5
02/08/2020 12:20 21.6 58 531.9 214 0.0 3.4 12.1 13
02/08/2020 12:30 21.9 57 946.0 568 0.0 4.0 14.5 358
02/08/2020 12:40 22.0 56 808.0 558 0.0 4.4 15.8 337
02/08/2020 12:50 21.6 57 644.3 548 0.0 4.3 15.3 355
02/08/2020 13:00 21.4 57 604.9 600 0.0 3.8 13.5 3
02/08/2020 13:10 21.5 57 561.6 514 0.0 3.9 14.0 13
02/08/2020 13:20 21.2 57 542.2 600 0.0 5.2 18.7 333
02/08/2020 13:30 21.1 58 496.2 360 0.0 3.6 13.0 340
02/08/2020 13:40 21.1 59 509.1 386 0.0 4.0 14.4 353
02/08/2020 13:50 21.0 58 392.7 0 0.0 3.0 10.9 357
02/08/2020 14:00 20.9 58 482.5 270 0.0 3.1 11.0 330
02/08/2020 14:10 20.9 59 371.9 102 0.0 3.5 12.4 9
02/08/2020 14:20 20.6 61 377.7 22 0.0 4.0 14.3 340
02/08/2020 14:30 20.4 62 496.9 600 0.0 4.6 16.4 340
02/08/2020 14:40 20.8 62 634.8 600 0.0 3.1 11.2 338
02/08/2020 14:50 21.0 62 495.9 600 0.0 2.6 9.3 357
02/08/2020 15:00 20.8 61 470.9 600 0.0 4.8 17.1 15
02/08/2020 15:10 20.5 63 477.7 600 0.0 4.2 15.2 16
02/08/2020 15:20 20.5 61 663.6 600 0.0 4.7 17.0 17
02/08/2020 15:30 20.8 60 468.5 600 0.0 2.5 9.1 16
02/08/2020 15:40 21.0 60 354.6 260 0.0 1.9 6.9 351
02/08/2020 15:50 21.1 58 324.9 0 0.0 2.2 7.8 335
02/08/2020 16:00 21.1 59 335.3 412 0.0 1.9 6.8 317
02/08/2020 16:10 20.7 59 315.3 272 0.0 3.5 12.4 344
02/08/2020 16:20 20.3 61 288.6 186 0.0 2.4 8.7 4
02/08/2020 16:30 20.5 61 263.6 0 0.0 2.1 7.6 341
02/08/2020 16:40 20.4 60 269.2 354 0.0 2.1 7.4 3
02/08/2020 16:50 20.4 61 183.1 0 0.0 2.2 8.0 343
02/08/2020 17:00 20.1 62 198.2 20 0.0 2.9 10.6 331
02/08/2020 17:10 19.7 63 161.9 0 0.0 4.2 15.0 345
02/08/2020 17:20 19.2 65 166.3 118 0.0 4.4 15.9 343
02/08/2020 17:30 19.0 64 237.5 406 0.0 3.7 13.2 324
02/08/2020 17:40 19.2 63 140.3 126 0.0 2.6 9.4 332
02/08/2020 17:50 19.0 64 67.2 0 0.0 2.8 10.0 322
02/08/2020 18:00 18.9 65 115.0 192 0.0 2.9 10.4 336
02/08/2020 18:10 18.9 65 121.5 310 0.0 3.8 13.7 325
02/08/2020 18:20 18.8 66 88.7 0 0.0 2.6 9.4 343
02/08/2020 18:30 18.6 67 55.9 0 0.0 1.7 6.2 346
02/08/2020 18:40 18.5 67 43.3 0 0.0 2.5 9.1 339
02/08/2020 18:50 18.3 67 31.1 0 0.0 2.5 8.9 340
02/08/2020 19:00 18.2 66 25.2 0 0.0 3.3 11.8 335
02/08/2020 19:10 18.0 66 8.8 0 0.0 3.3 11.9 335
02/08/2020 19:20 18.0 67 0.0 0 0.0 3.2 11.6 335
02/08/2020 19:30 17.8 67 0.0 0 0.0 3.0 10.7 333
02/08/2020 19:40 17.7 67 0.0 0 0.0 2.1 7.4 336
02/08/2020 19:50 17.6 68 0.0 0 0.0 2.6 9.5 339
02/08/2020 20:00 17.5 69 0.0 0 0.0 1.9 6.8 350
02/08/2020 20:10 17.4 70 0.0 0 0.0 2.0 7.3 343
02/08/2020 20:20 17.3 71 0.0 0 0.0 2.3 8.2 337
02/08/2020 20:30 17.2 72 0.0 0 0.0 1.5 5.3 352
02/08/2020 20:40 17.2 72 0.0 0 0.0 2.0 7.3 2
02/08/2020 20:50 17.1 72 0.0 0 0.0 1.5 5.3 14
02/08/2020 21:00 17.1 73 0.0 0 0.0 1.6 5.9 331
02/08/2020 21:10 17.1 73 0.0 0 0.0 1.5 5.2 314
02/08/2020 21:20 17.0 73 0.0 0 0.0 2.2 8.0 304
02/08/2020 21:30 17.1 72 0.0 0 0.0 2.4 8.6 337
02/08/2020 21:40 17.0 72 0.0 0 0.0 1.8 6.4 338
02/08/2020 21:50 17.0 72 0.0 0 0.0 2.8 10.0 322
02/08/2020 22:00 17.1 71 0.0 0 0.0 2.0 7.3 328
02/08/2020 22:10 17.1 71 0.0 0 0.0 3.2 11.4 323
02/08/2020 22:20 17.2 71 0.0 0 0.0 3.8 13.7 311
02/08/2020 22:30 17.2 72 0.0 0 0.0 3.0 10.8 323
02/08/2020 22:40 17.2 73 0.0 0 0.0 2.8 10.1 324
02/08/2020 22:50 17.1 73 0.0 0 0.0 2.3 8.1 349
02/08/2020 23:00 17.0 73 0.0 0 0.0 2.1 7.4 336
02/08/2020 23:10 16.9 73 0.0 0 0.0 1.6 5.6 343
02/08/2020 23:20 16.9 73 0.0 0 0.0 2.1 7.5 344
02/08/2020 23:30 16.8 73 0.0 0 0.0 2.0 7.3 349
02/08/2020 23:40 16.7 73 0.0 0 0.0 2.8 10.0 341
02/08/2020 23:50 16.7 73 0.0 0 0.0 2.3 8.1 342
Anterior Página 1 de 1 Siguiente

NOTA: Tipo de datos según el color:
   - Valores diarios o 10 minutos correctos
   - Valores diarios calculados a partir de un número de datos 10 minutos menor que 144 y mayor que 120, o de un número de datos semihorarios menor que 48 y mayor que 40 (caso de las estaciones de INTIA y del Ministerio)
   - Valores diez minutos estimados


Contacto        Enlaces        Aviso legal